Time;durP1;ratioP1;P1;durP2;ratioP2;P2;SDS_P1;SDS_P2;PMS_P1;PMS_P2;Temp;Humidity;BMP_temperature;BMP_pressure;BME280_temperature;BME280_humidity;BME280_pressure;Samples;Min_cycle;Max_cycle;Signal;HPM_P1;HPM_P2
2023/01/07 00:01:26;;;;;;;34.00;21.77;;;128.80;2252.80;;;;;;5087890;28;20382;-59
2023/01/07 00:03:52;;;;;;;50.70;29.83;;;128.90;2252.80;;;;;;5088022;28;20549;-59
2023/01/07 00:06:23;;;;;;;63.95;35.80;;;128.90;2252.80;;;;;;5088238;28;20052;-59
2023/01/07 00:08:51;;;;;;;101.07;59.63;;;153.60;2252.80;;;;;;5087657;28;20466;-60
2023/01/07 00:11:23;;;;;;;70.43;43.28;;;153.60;2252.80;;;;;;5088339;28;20351;-60
2023/01/07 00:13:51;;;;;;;44.17;28.50;;;128.90;2252.80;;;;;;5088135;28;20024;-60
2023/01/07 00:16:19;;;;;;;57.20;34.47;;;128.80;2252.80;;;;;;5091334;28;20032;-59
2023/01/07 00:18:45;;;;;;;33.65;19.05;;;128.80;2252.80;;;;;;5092163;28;20377;-59
2023/01/07 00:21:14;;;;;;;36.95;22.40;;;128.70;2252.80;;;;;;5091189;28;20028;-59
2023/01/07 00:23:41;;;;;;;34.03;21.65;;;128.80;2252.80;;;;;;5091536;28;20114;-58
2023/01/07 00:26:15;;;;;;;40.67;23.90;;;128.80;2252.80;;;;;;5092006;28;20032;-61
2023/01/07 00:28:44;;;;;;;46.08;28.95;;;128.80;2252.80;;;;;;5091755;28;20032;-60
2023/01/07 00:31:15;;;;;;;51.38;32.33;;;128.80;2252.80;;;;;;5091749;28;20032;-60
2023/01/07 00:34:05;;;;;;;41.97;23.70;;;128.80;2252.80;;;;;;5091137;28;20024;-59
2023/01/07 00:36:34;;;;;;;79.80;45.63;;;128.70;2252.80;;;;;;5091316;28;20035;-59
2023/01/07 00:39:13;;;;;;;58.58;34.13;;;128.60;2252.80;;;;;;5092613;28;20025;-60
2023/01/07 00:41:39;;;;;;;66.22;38.78;;;128.60;2252.80;;;;;;5093372;28;20044;-60
2023/01/07 00:44:06;;;;;;;80.18;45.90;;;128.50;2252.80;;;;;;5093289;28;20020;-60
2023/01/07 00:46:33;;;;;;;87.55;50.42;;;128.60;2252.80;;;;;;5093052;28;20055;-60
2023/01/07 00:49:00;;;;;;;54.95;32.75;;;128.60;2252.80;;;;;;5092927;28;20025;-60
2023/01/07 00:51:25;;;;;;;34.67;22.73;;;128.60;2252.80;;;;;;5092031;28;20098;-61
2023/01/07 00:53:51;;;;;;;92.22;50.85;;;128.60;2252.80;;;;;;5091081;28;20574;-59
2023/01/07 00:56:18;;;;;;;108.28;64.13;;;128.50;2252.80;;;;;;5091424;28;20024;-61
2023/01/07 00:58:44;;;;;;;59.50;37.15;;;128.50;2252.80;;;;;;5091294;28;20394;-59
2023/01/07 01:01:10;;;;;;;60.97;36.40;;;128.30;2252.80;;;;;;5090715;28;20082;-62
2023/01/07 01:03:37;;;;;;;44.22;27.55;;;128.30;2252.80;;;;;;5089747;28;20036;-61
2023/01/07 01:06:04;;;;;;;31.42;21.55;;;128.30;2252.80;;;;;;5091167;28;20544;-60
2023/01/07 01:08:30;;;;;;;78.32;39.42;;;128.20;2252.80;;;;;;5090704;28;20482;-60
2023/01/07 01:11:01;;;;;;;47.53;29.58;;;128.20;2252.80;;;;;;5091231;28;20075;-61
2023/01/07 01:13:27;;;;;;;77.95;43.88;;;128.40;2252.80;;;;;;5090604;28;20508;-61
2023/01/07 01:15:53;;;;;;;80.13;43.85;;;128.50;2252.80;;;;;;5090622;28;20032;-59
2023/01/07 01:18:18;;;;;;;121.95;71.88;;;128.60;2252.80;;;;;;5090904;28;20073;-60
2023/01/07 01:20:44;;;;;;;67.50;37.13;;;128.70;2252.80;;;;;;5090680;28;20054;-59
2023/01/07 01:23:10;;;;;;;67.63;41.00;;;128.70;2252.80;;;;;;5090596;28;20020;-61
2023/01/07 01:25:35;;;;;;;99.78;54.85;;;128.60;2252.80;;;;;;5090248;28;20066;-60
2023/01/07 01:28:01;;;;;;;99.03;55.78;;;128.70;2252.80;;;;;;5090368;28;20023;-61
2023/01/07 01:30:27;;;;;;;34.50;22.00;;;128.70;2252.80;;;;;;5090592;28;20569;-60
2023/01/07 01:32:52;;;;;;;131.20;80.47;;;128.60;2252.80;;;;;;5090300;28;20596;-61
2023/01/07 01:35:18;;;;;;;97.82;57.97;;;128.50;2252.80;;;;;;5090736;28;20462;-61
2023/01/07 01:37:44;;;;;;;58.10;35.13;;;128.60;2252.80;;;;;;5090203;28;20032;-60
2023/01/07 01:40:10;;;;;;;55.17;33.60;;;128.50;2252.80;;;;;;5089562;28;20474;-60
2023/01/07 01:42:36;;;;;;;68.47;35.70;;;128.50;2252.80;;;;;;5090352;28;20055;-59
2023/01/07 01:45:03;;;;;;;77.93;45.33;;;128.50;2252.80;;;;;;5091281;28;20059;-61
2023/01/07 01:47:41;;;;;;;39.00;24.85;;;128.40;2252.80;;;;;;5092396;28;20485;-60
2023/01/07 01:50:18;;;;;;;37.33;24.90;;;128.40;2252.80;;;;;;5092678;28;20052;-60
2023/01/07 01:53:12;;;;;;;50.55;29.58;;;128.40;2252.80;;;;;;5092056;28;20035;-60
2023/01/07 01:55:43;;;;;;;49.20;31.58;;;128.40;2252.80;;;;;;5092515;28;20117;-60
2023/01/07 01:58:17;;;;;;;55.53;32.63;;;128.40;2252.80;;;;;;5092282;28;20111;-60
2023/01/07 02:00:43;;;;;;;32.83;22.75;;;128.30;2252.80;;;;;;5091577;28;20040;-60
2023/01/07 02:03:13;;;;;;;68.85;40.58;;;128.30;2252.80;;;;;;5091702;28;20032;-60
2023/01/07 02:05:41;;;;;;;73.82;40.83;;;128.30;2252.80;;;;;;5091715;28;20057;-60
2023/01/07 02:08:07;;;;;;;91.55;51.45;;;128.30;2252.80;;;;;;5091603;28;20028;-60
2023/01/07 02:10:34;;;;;;;85.55;43.85;;;128.30;2252.80;;;;;;5091287;28;20032;-61
2023/01/07 02:13:17;;;;;;;83.57;46.70;;;128.00;2252.80;;;;;;5091368;28;20028;-61
2023/01/07 02:15:46;;;;;;;;;;;128.20;2252.80;;;;;;5091882;28;20027;-59
2023/01/07 02:18:26;;;;;;;38.53;24.33;;;128.20;2252.80;;;;;;5091110;28;19910;-60
2023/01/07 02:20:52;;;;;;;82.13;41.45;;;128.10;2252.80;;;;;;5090803;28;20490;-60
2023/01/07 02:23:55;;;;;;;48.08;24.73;;;128.10;2252.80;;;;;;5091124;28;20016;-60
2023/01/07 02:26:39;;;;;;;102.63;48.03;;;128.10;2252.80;;;;;;5091005;28;20042;-58
2023/01/07 02:29:32;;;;;;;47.80;26.35;;;128.00;2252.80;;;;;;5091162;28;20027;-60
2023/01/07 02:32:01;;;;;;;52.40;27.50;;;128.00;2252.80;;;;;;5091088;28;20016;-59
2023/01/07 02:35:04;;;;;;;66.50;36.13;;;128.10;2252.80;;;;;;5091004;28;20107;-59
2023/01/07 02:37:43;;;;;;;37.88;21.65;;;128.10;2252.80;;;;;;5090264;28;20024;-60
2023/01/07 02:40:29;;;;;;;45.08;30.50;;;128.00;2252.80;;;;;;5090594;28;20055;-60
2023/01/07 02:43:25;;;;;;;39.33;26.40;;;128.10;2252.80;;;;;;5090781;28;20499;-60
2023/01/07 02:45:57;;;;;;;33.72;18.83;;;128.20;2252.80;;;;;;5090400;28;20105;-60
2023/01/07 02:48:24;;;;;;;25.05;13.48;;;128.10;2252.80;;;;;;5090469;28;20028;-59
2023/01/07 02:50:50;;;;;;;28.40;18.33;;;128.10;2252.80;;;;;;5090374;28;20373;-60
2023/01/07 02:53:18;;;;;;;40.38;25.35;;;128.10;2252.80;;;;;;5090465;28;20024;-60
2023/01/07 02:55:59;;;;;;;34.78;18.85;;;128.10;2252.80;;;;;;5090689;28;20020;-60
2023/01/07 02:59:15;;;;;;;22.05;14.63;;;128.00;2252.80;;;;;;5090549;28;20489;-60
2023/01/07 03:02:09;;;;;;;37.92;20.05;;;128.00;2252.80;;;;;;5056236;28;20043;-59
2023/01/07 03:04:56;;;;;;;25.08;15.40;;;103.30;2227.20;;;;;;5090502;28;20020;-60
2023/01/07 03:07:51;;;;;;;28.73;16.40;;;103.30;2227.20;;;;;;5090157;28;20119;-60
2023/01/07 03:10:49;;;;;;;18.17;12.50;;;103.20;2227.20;;;;;;5090338;28;20028;-59
2023/01/07 03:13:57;;;;;;;29.33;19.10;;;103.20;2227.20;;;;;;5090489;28;20028;-59
2023/01/07 03:16:38;;;;;;;74.03;38.65;;;103.20;2227.20;;;;;;5059963;28;20036;-59
2023/01/07 03:19:10;;;;;;;26.98;14.80;;;103.30;2227.20;;;;;;5090359;28;20024;-61
2023/01/07 03:21:37;;;;;;;32.20;20.20;;;103.20;2227.20;;;;;;5090446;28;20036;-60
2023/01/07 03:24:06;;;;;;;35.13;19.73;;;103.10;2227.20;;;;;;5090152;28;20020;-61
2023/01/07 03:26:38;;;;;;;19.02;12.05;;;103.10;2227.20;;;;;;5090198;28;20027;-60
2023/01/07 03:29:06;;;;;;;18.15;10.73;;;103.20;2227.20;;;;;;5090238;28;20020;-60
2023/01/07 03:31:34;;;;;;;12.52;8.35;;;103.10;2227.20;;;;;;5090091;28;20486;-59
2023/01/07 03:34:09;;;;;;;38.05;20.48;;;103.20;2227.20;;;;;;5090186;28;20047;-60
2023/01/07 03:36:52;;;;;;;25.33;15.63;;;103.20;2227.20;;;;;;5090099;28;20032;-60
2023/01/07 03:39:21;;;;;;;15.98;9.90;;;103.20;2227.20;;;;;;5089782;28;20115;-59
2023/01/07 03:44:34;;;;;;;18.58;10.60;;;103.00;2227.20;;;;;;5090265;28;20034;-59
2023/01/07 03:47:00;;;;;;;17.42;11.50;;;103.10;2227.20;;;;;;5089720;28;20052;-60
2023/01/07 03:49:26;;;;;;;18.55;11.35;;;103.10;2227.20;;;;;;5090202;28;20055;-59
2023/01/07 03:51:53;;;;;;;26.38;15.27;;;103.10;2227.20;;;;;;5094265;28;20398;-60
2023/01/07 03:54:19;;;;;;;24.33;15.02;;;103.20;2227.20;;;;;;5094190;28;20022;-59
2023/01/07 03:56:45;;;;;;;22.67;13.77;;;103.10;2227.20;;;;;;5094157;28;20484;-60
2023/01/07 03:59:11;;;;;;;23.27;14.88;;;103.20;2227.20;;;;;;5093688;28;20024;-60
2023/01/07 04:01:37;;;;;;;32.03;18.38;;;103.10;2227.20;;;;;;5094112;28;20099;-59
2023/01/07 04:04:02;;;;;;;24.45;14.23;;;103.10;2227.20;;;;;;5093918;28;20385;-59
2023/01/07 04:06:28;;;;;;;37.58;19.90;;;103.10;2227.20;;;;;;5094052;28;20028;-60
2023/01/07 04:08:54;;;;;;;25.90;15.98;;;103.10;2227.20;;;;;;5093368;28;20036;-60
2023/01/07 04:11:19;;;;;;;42.50;23.23;;;103.20;2227.20;;;;;;5093827;28;20039;-60
2023/01/07 04:13:45;;;;;;;68.47;34.03;;;103.10;2227.20;;;;;;5093771;28;20081;-60
2023/01/07 04:16:11;;;;;;;41.15;20.25;;;103.00;2227.20;;;;;;5093497;28;20028;-60
2023/01/07 04:18:36;;;;;;;17.35;10.13;;;103.10;2227.20;;;;;;5093633;28;20047;-59
2023/01/07 04:21:02;;;;;;;46.47;26.45;;;103.10;2227.20;;;;;;5093481;28;20036;-60
2023/01/07 04:23:28;;;;;;;21.60;14.43;;;103.10;2227.20;;;;;;5093656;28;20488;-59
2023/01/07 04:25:54;;;;;;;22.20;13.65;;;103.10;2227.20;;;;;;5093190;28;20063;-60
2023/01/07 04:28:20;;;;;;;31.60;19.67;;;103.00;2227.20;;;;;;5093289;28;20054;-60
2023/01/07 04:30:45;;;;;;;30.92;16.60;;;103.10;2227.20;;;;;;5093563;28;20027;-60
2023/01/07 04:33:11;;;;;;;25.15;15.85;;;103.10;2227.20;;;;;;5093214;28;20027;-59
2023/01/07 04:35:38;;;;;;;34.03;20.35;;;103.10;2227.20;;;;;;5093343;28;20028;-60
2023/01/07 04:38:04;;;;;;;29.83;19.17;;;103.00;2227.20;;;;;;5092993;28;20370;-60
2023/01/07 04:40:29;;;;;;;34.35;20.85;;;103.00;2227.20;;;;;;5092900;28;20039;-60
2023/01/07 04:42:55;;;;;;;40.83;22.63;;;103.00;2227.20;;;;;;5093108;28;20020;-59
2023/01/07 04:45:21;;;;;;;36.42;22.73;;;103.00;2227.20;;;;;;5092884;28;20051;-58
2023/01/07 04:47:46;;;;;;;43.30;29.60;;;103.00;2227.20;;;;;;5093137;28;20077;-60
2023/01/07 04:50:12;;;;;;;54.67;31.48;;;102.90;2227.20;;;;;;5092964;28;20093;-60
2023/01/07 04:52:38;;;;;;;52.85;29.85;;;103.00;2227.20;;;;;;5093315;28;20024;-60
2023/01/07 04:55:04;;;;;;;59.28;33.22;;;103.00;2227.20;;;;;;5092928;28;20065;-60
2023/01/07 04:57:30;;;;;;;46.33;29.45;;;103.00;2227.20;;;;;;5093072;28;20485;-60
2023/01/07 04:59:55;;;;;;;61.40;38.67;;;103.00;2227.20;;;;;;5092842;28;20036;-60
2023/01/07 05:02:21;;;;;;;62.40;35.63;;;103.00;2227.20;;;;;;5092120;28;20442;-60
2023/01/07 05:04:47;;;;;;;55.13;31.77;;;102.90;2227.20;;;;;;5092900;28;20082;-61
2023/01/07 05:07:13;;;;;;;39.08;23.00;;;102.80;2227.20;;;;;;5092247;28;20020;-60
2023/01/07 05:09:38;;;;;;;27.83;16.52;;;102.70;2227.20;;;;;;5092674;28;20391;-60
2023/01/07 05:12:04;;;;;;;28.63;19.50;;;102.70;2227.20;;;;;;5092558;28;20099;-60
2023/01/07 05:14:30;;;;;;;39.72;24.80;;;102.80;2227.20;;;;;;5091363;28;20058;-60
2023/01/07 05:16:55;;;;;;;72.28;47.42;;;102.80;2227.20;;;;;;5092542;28;20028;-59
2023/01/07 05:19:21;;;;;;;72.28;46.45;;;102.80;2227.20;;;;;;5092189;28;20024;-60
2023/01/07 05:21:47;;;;;;;48.60;31.70;;;102.80;2227.20;;;;;;5092420;28;20020;-60
2023/01/07 05:24:12;;;;;;;54.50;23.10;;;102.90;2227.20;;;;;;5092334;28;20476;-59
2023/01/07 05:26:38;;;;;;;46.85;27.67;;;102.80;2227.20;;;;;;5092242;28;20069;-60
2023/01/07 05:29:04;;;;;;;96.70;57.17;;;102.80;2227.20;;;;;;5092246;28;20028;-60
2023/01/07 05:31:30;;;;;;;121.88;69.70;;;102.90;2227.20;;;;;;5092315;28;20030;-60
2023/01/07 05:33:56;;;;;;;70.70;41.08;;;;;;;;;;5092276;28;20367;-59
2023/01/07 05:36:22;;;;;;;32.78;19.33;;;;;;;;;;5092014;28;20039;-60
2023/01/07 05:38:49;;;;;;;26.48;19.60;;;;;;;;;;5091817;28;20032;-60
2023/01/07 05:41:15;;;;;;;28.88;16.95;;;;;;;;;;5091651;28;20490;-59
2023/01/07 05:43:40;;;;;;;27.70;17.25;;;102.60;2227.20;;;;;;5091878;28;20031;-60
2023/01/07 05:46:06;;;;;;;29.08;17.33;;;102.60;2227.20;;;;;;5091759;28;20052;-60
2023/01/07 05:48:32;;;;;;;31.77;19.58;;;102.60;2227.20;;;;;;5091816;28;20095;-60
2023/01/07 05:50:58;;;;;;;27.58;18.00;;;;;;;;;;5091707;28;20497;-59
2023/01/07 05:53:24;;;;;;;29.25;18.92;;;;;;;;;;5091649;28;20024;-59
2023/01/07 05:55:55;;;;;;;33.97;22.83;;;;;;;;;;5091835;28;20431;-60
2023/01/07 05:58:21;;;;;;;31.23;18.75;;;;;;;;;;5091519;28;20477;-59
2023/01/07 06:00:47;;;;;;;27.67;16.98;;;;;;;;;;5089911;28;20450;-59
2023/01/07 06:03:13;;;;;;;32.60;18.63;;;;;;;;;;5091385;28;20032;-60
2023/01/07 06:05:39;;;;;;;43.90;27.40;;;;;;;;;;5091756;28;20031;-60
2023/01/07 06:08:05;;;;;;;38.08;25.30;;;;;;;;;;5091337;28;20355;-61
2023/01/07 06:10:31;;;;;;;35.28;20.23;;;;;;;;;;5091203;28;20038;-60
2023/01/07 06:12:57;;;;;;;36.80;25.38;;;;;;;;;;5090716;28;20028;-59
2023/01/07 06:15:23;;;;;;;29.63;19.30;;;;;;;;;;5091393;28;20032;-59
2023/01/07 06:17:49;;;;;;;22.60;15.65;;;;;;;;;;5091439;28;20039;-60
2023/01/07 06:20:15;;;;;;;24.40;17.33;;;;;;;;;;5091253;28;20036;-60
2023/01/07 06:22:42;;;;;;;30.63;21.10;;;;;;;;;;5091029;28;20028;-60
2023/01/07 06:25:08;;;;;;;25.67;18.67;;;;;;;;;;5091562;28;20033;-60
2023/01/07 06:27:34;;;;;;;23.58;16.15;;;;;;;;;;5091139;28;20028;-60
2023/01/07 06:30:00;;;;;;;22.98;16.73;;;;;;;;;;5091309;28;20028;-60
2023/01/07 06:32:26;;;;;;;31.33;22.75;;;;;;;;;;5091191;28;20028;-60
2023/01/07 06:34:52;;;;;;;51.33;37.15;;;;;;;;;;5090886;28;20097;-60
2023/01/07 06:37:18;;;;;;;23.23;17.55;;;;;;;;;;5091030;28;20026;-60
2023/01/07 06:39:44;;;;;;;23.40;16.25;;;;;;;;;;5090442;28;20072;-60
2023/01/07 06:42:11;;;;;;;19.67;12.85;;;;;;;;;;5090635;28;20040;-60
2023/01/07 06:44:37;;;;;;;25.70;20.67;;;;;;;;;;5090901;28;20107;-59
2023/01/07 06:47:03;;;;;;;30.73;22.60;;;;;;;;;;5090556;28;20094;-59
2023/01/07 06:49:28;;;;;;;37.97;27.88;;;103.10;2227.20;;;;;;5090933;28;20024;-59
2023/01/07 06:51:54;;;;;;;40.42;27.25;;;103.10;2227.20;;;;;;5090648;28;20074;-59
2023/01/07 06:54:20;;;;;;;48.72;32.55;;;103.20;2227.20;;;;;;5090549;28;20100;-60
2023/01/07 06:56:45;;;;;;;69.50;45.22;;;103.30;2227.20;;;;;;5090726;28;20108;-59
2023/01/07 06:59:11;;;;;;;116.82;74.25;;;103.30;2227.20;;;;;;5090648;28;20032;-59
2023/01/07 07:01:37;;;;;;;213.50;143.15;;;103.30;2227.20;;;;;;5090735;28;20036;-59
2023/01/07 07:04:02;;;;;;;154.65;108.22;;;128.00;2252.80;;;;;;5090521;28;20077;-59
2023/01/07 07:06:28;;;;;;;84.88;56.78;;;128.00;2252.80;;;;;;5090635;28;20077;-59
2023/01/07 07:08:54;;;;;;;119.82;85.15;;;128.30;2252.80;;;;;;5090224;28;20127;-59
2023/01/07 07:11:19;;;;;;;55.83;37.58;;;128.30;2252.80;;;;;;5090476;28;20039;-59
2023/01/07 07:13:45;;;;;;;33.55;19.92;;;128.30;2252.80;;;;;;5090547;28;20047;-59
2023/01/07 07:16:11;;;;;;;28.00;17.85;;;128.20;2252.80;;;;;;5090157;28;20436;-59
2023/01/07 07:18:36;;;;;;;29.65;19.27;;;128.20;2252.80;;;;;;5090422;28;20024;-58
2023/01/07 07:21:02;;;;;;;32.55;20.48;;;128.30;2252.80;;;;;;5090333;28;20478;-59
2023/01/07 07:23:28;;;;;;;35.88;27.73;;;128.40;2252.80;;;;;;5090132;28;20028;-59
2023/01/07 07:25:53;;;;;;;38.83;27.17;;;128.50;2252.80;;;;;;5089998;28;20036;-59
2023/01/07 07:28:19;;;;;;;45.25;28.60;;;128.60;2252.80;;;;;;5090262;28;20398;-59
2023/01/07 07:30:45;;;;;;;42.97;27.25;;;128.70;2252.80;;;;;;5087433;28;20066;-59
2023/01/07 07:33:13;;;;;;;33.20;17.88;;;128.70;2252.80;;;;;;5088504;28;20058;-58
2023/01/07 07:35:41;;;;;;;71.35;49.15;;;153.60;2252.80;;;;;;5088560;28;20028;-57
2023/01/07 07:38:07;;;;;;;51.70;35.75;;;153.70;2252.80;;;;;;5088363;28;20109;-61
2023/01/07 07:40:33;;;;;;;129.40;86.22;;;153.80;2252.80;;;;;;5088115;28;20079;-64
2023/01/07 07:42:59;;;;;;;79.55;54.50;;;153.80;2252.80;;;;;;5088089;28;20040;-62
2023/01/07 07:45:25;;;;;;;111.68;78.50;;;153.90;2252.80;;;;;;5088109;28;20123;-63
2023/01/07 07:47:50;;;;;;;547.92;416.73;;;153.90;2252.80;;;;;;5088219;28;20111;-62
2023/01/07 07:50:16;;;;;;;532.35;408.17;;;153.70;2252.80;;;;;;5088402;28;20063;-64
2023/01/07 07:52:42;;;;;;;468.73;342.15;;;153.70;2252.80;;;;;;5088205;28;20077;-62
2023/01/07 07:55:08;;;;;;;402.90;285.00;;;153.70;2252.80;;;;;;5087799;28;20475;-63
2023/01/07 07:57:34;;;;;;;403.65;289.00;;;153.80;2252.80;;;;;;5088267;28;20108;-61
2023/01/07 07:59:59;;;;;;;298.23;218.93;;;153.90;2252.80;;;;;;5088034;28;20031;-65
2023/01/07 08:02:25;;;;;;;317.73;226.13;;;153.80;2252.80;;;;;;5088410;28;20119;-63
2023/01/07 08:04:51;;;;;;;328.15;234.70;;;153.80;2252.80;;;;;;5088077;28;20021;-63
2023/01/07 08:07:16;;;;;;;362.80;261.95;;;153.80;2252.80;;;;;;5089502;28;20077;-62
2023/01/07 08:09:42;;;;;;;262.20;184.00;;;153.90;2252.80;;;;;;5089304;28;20026;-61
2023/01/07 08:12:07;;;;;;;139.65;109.88;;;154.10;2252.80;;;;;;5090028;28;20051;-61
2023/01/07 08:14:33;;;;;;;141.00;103.18;;;154.20;2252.80;;;;;;5089656;28;20031;-62
2023/01/07 08:16:59;;;;;;;152.88;114.30;;;154.30;2252.80;;;;;;5090958;28;20028;-61
2023/01/07 08:19:24;;;;;;;128.27;92.93;;;154.50;2252.80;;;;;;5091663;28;20031;-62
2023/01/07 08:21:51;;;;;;;105.10;74.13;;;179.30;2252.80;;;;;;5091913;28;20076;-63
2023/01/07 08:24:17;;;;;;;99.82;74.25;;;179.40;2252.80;;;;;;5090106;28;20037;-63
2023/01/07 08:26:42;;;;;;;115.32;81.10;;;179.80;2252.80;;;;;;5091573;28;20737;-63
2023/01/07 08:29:08;;;;;;;148.13;105.70;;;205.00;2252.80;;;;;;5091758;28;20040;-63
2023/01/07 08:31:34;;;;;;;148.15;109.63;;;230.60;2252.80;;;;;;5091170;28;20020;-64
2023/01/07 08:33:59;;;;;;;177.30;132.25;;;282.20;2278.40;;;;;;5090637;28;20040;-62
2023/01/07 08:36:25;;;;;;;174.43;133.73;;;307.90;2304.00;;;;;;5092025;28;20020;-62
2023/01/07 08:38:52;;;;;;;154.52;117.70;;;308.10;2252.80;;;;;;5092996;28;20459;-62
2023/01/07 08:41:22;;;;;;;349.20;274.30;;;282.40;2278.40;;;;;;5093041;28;20036;-63
2023/01/07 08:43:49;;;;;;;536.47;436.50;;;256.80;2252.80;;;;;;5092832;28;20031;-62
2023/01/07 08:46:15;;;;;;;498.40;382.00;;;256.10;2252.80;;;;;;5092540;28;20052;-62
2023/01/07 08:48:41;;;;;;;520.97;407.23;;;231.20;2252.80;;;;;;5092963;28;20470;-63
2023/01/07 08:51:07;;;;;;;473.65;378.80;;;256.60;2252.80;;;;;;5092928;28;20032;-64
2023/01/07 08:53:34;;;;;;;318.77;269.48;;;307.70;2304.00;;;;;;5092953;28;20028;-63
2023/01/07 08:55:59;;;;;;;219.93;193.88;;;358.90;2124.80;;;;;;5093043;28;20013;-62
2023/01/07 08:58:25;;;;;;;272.85;243.13;;;384.40;1945.60;;;;;;5092704;28;20020;-65
2023/01/07 09:00:52;;;;;;;223.07;199.05;;;384.70;1920.00;;;;;;5092562;28;20039;-63
2023/01/07 09:03:17;;;;;;;246.70;220.35;;;409.60;1920.00;;;;;;5091460;28;20025;-64
2023/01/07 09:05:45;;;;;;;241.77;215.50;;;410.00;1894.40;;;;;;5090951;28;20032;-63
2023/01/07 09:08:11;;;;;;;183.90;164.40;;;410.30;1843.20;;;;;;5090843;28;20024;-63
2023/01/07 09:10:37;;;;;;;127.93;114.25;;;461.10;1792.00;;;;;;5090271;28;20111;-64
2023/01/07 09:13:02;;;;;;;135.85;121.53;;;460.90;1740.80;;;;;;5090073;28;20390;-67
2023/01/07 09:15:28;;;;;;;72.78;63.92;;;486.60;1689.60;;;;;;5090992;28;20438;-63
2023/01/07 09:17:54;;;;;;;91.13;81.88;;;461.70;1664.00;;;;;;5090502;28;20028;-67
2023/01/07 09:20:20;;;;;;;96.68;86.63;;;512.50;1587.20;;;;;;5090710;28;20036;-63
2023/01/07 09:22:46;;;;;;;158.93;142.18;;;537.80;1536.00;;;;;;5090684;28;20100;-65
2023/01/07 09:25:11;;;;;;;267.95;240.32;;;512.70;1510.40;;;;;;5090279;28;20070;-66
2023/01/07 09:27:38;;;;;;;240.13;214.50;;;461.50;1664.00;;;;;;5090611;28;20024;-62
2023/01/07 09:30:06;;;;;;;244.45;219.05;;;436.10;1689.60;;;;;;5090102;28;20107;-63
2023/01/07 09:32:31;;;;;;;267.80;238.63;;;436.10;1689.60;;;;;;5090011;28;20028;-63
2023/01/07 09:34:57;;;;;;;272.85;243.48;;;461.50;1664.00;;;;;;5090278;28;20032;-63
2023/01/07 09:37:23;;;;;;;282.38;250.65;;;487.00;1587.20;;;;;;5090505;28;20028;-62
2023/01/07 09:39:48;;;;;;;253.45;219.20;;;486.60;1638.40;;;;;;5090052;28;20474;-65
2023/01/07 09:42:24;;;;;;;346.38;276.33;;;487.00;1587.20;;;;;;5089703;28;20036;-62
2023/01/07 09:45:14;;;;;;;250.25;206.43;;;486.40;1638.40;;;;;;5090137;28;20028;-63
2023/01/07 09:47:44;;;;;;;238.95;195.93;;;436.10;1664.00;;;;;;5089163;28;20055;-63
2023/01/07 09:50:17;;;;;;;287.80;243.52;;;384.70;1817.60;;;;;;5090225;28;20012;-62
2023/01/07 09:52:47;;;;;;;207.13;168.48;;;358.90;1920.00;;;;;;5089950;28;20111;-65
2023/01/07 09:55:31;;;;;;;340.42;289.45;;;333.60;1996.80;;;;;;5089935;28;20027;-63
2023/01/07 09:57:57;;;;;;;325.20;268.48;;;333.00;2073.60;;;;;;5090153;28;20024;-67
2023/01/07 10:00:23;;;;;;;314.25;247.23;;;307.90;2099.20;;;;;;5089757;28;20439;-64
2023/01/07 10:03:21;;;;;;;288.27;229.00;;;307.80;2124.80;;;;;;5090184;28;20020;-63
2023/01/07 10:05:52;;;;;;;245.02;194.20;;;307.60;2150.40;;;;;;5090026;28;20020;-62
2023/01/07 10:08:24;;;;;;;225.00;164.00;;;307.60;2150.40;;;;;;5089798;28;20063;-63
2023/01/07 10:10:59;;;;;;;208.32;153.82;;;307.50;2150.40;;;;;;5092010;28;20024;-64
2023/01/07 10:13:44;;;;;;;189.35;146.65;;;307.60;2176.00;;;;;;5088949;28;20474;-61
2023/01/07 10:16:18;;;;;;;187.90;141.80;;;307.60;2176.00;;;;;;5071453;28;20029;-64
2023/01/07 10:19:17;;;;;;;163.48;123.13;;;307.50;2201.60;;;;;;5077514;28;20016;-64
2023/01/07 10:22:00;;;;;;;148.57;111.50;;;307.40;2201.60;;;;;;5090861;28;20046;-64
2023/01/07 10:24:33;;;;;;;146.32;104.72;;;307.40;2201.60;;;;;;5091336;28;20031;-63
2023/01/07 10:27:08;;;;;;;82.95;60.35;;;307.30;2227.20;;;;;;5090711;28;20024;-63
2023/01/07 10:29:49;;;;;;;117.85;88.35;;;307.30;2252.80;;;;;;5090405;28;20069;-63
2023/01/07 10:32:21;;;;;;;98.13;72.80;;;307.40;2252.80;;;;;;5091119;28;20024;-63
2023/01/07 10:34:49;;;;;;;93.97;68.40;;;307.30;2278.40;;;;;;5091028;28;20479;-65
2023/01/07 10:37:37;;;;;;;93.32;64.35;;;307.50;2252.80;;;;;;5090758;28;20400;-64
2023/01/07 10:40:23;;;;;;;87.53;67.32;;;307.60;2278.40;;;;;;5089890;28;20512;-63
2023/01/07 10:42:58;;;;;;;54.65;40.05;;;307.70;2227.20;;;;;;5088488;28;20032;-63
2023/01/07 10:45:37;;;;;;;66.18;49.03;;;307.60;2227.20;;;;;;5087597;28;20389;-63
2023/01/07 10:48:40;;;;;;;76.13;55.03;;;307.60;2252.80;;;;;;5089224;28;20102;-64
2023/01/07 10:51:15;;;;;;;70.65;49.72;;;307.70;2278.40;;;;;;5089158;28;20099;-64
2023/01/07 10:53:49;;;;;;;80.50;51.97;;;307.80;2252.80;;;;;;5088844;28;20112;-63
2023/01/07 10:56:30;;;;;;;76.07;49.55;;;307.80;2252.80;;;;;;5088913;28;20024;-63
2023/01/07 10:58:56;;;;;;;71.72;50.60;;;307.90;2227.20;;;;;;5088684;28;20028;-63
2023/01/07 11:01:28;;;;;;;59.50;44.22;;;308.00;2227.20;;;;;;5088752;28;20036;-63
2023/01/07 11:03:56;;;;;;;59.40;45.92;;;308.00;2227.20;;;;;;5088566;28;20030;-62
2023/01/07 11:06:43;;;;;;;57.17;42.35;;;307.90;2252.80;;;;;;5088761;28;20036;-65
2023/01/07 11:09:15;;;;;;;56.03;41.72;;;308.00;2227.20;;;;;;5088808;28;20035;-62
2023/01/07 11:11:42;;;;;;;46.75;33.58;;;308.10;2252.80;;;;;;5088409;28;20078;-63
2023/01/07 11:14:26;;;;;;;33.50;25.90;;;308.10;2201.60;;;;;;5088923;28;20035;-63
2023/01/07 11:17:16;;;;;;;52.00;36.22;;;332.80;2201.60;;;;;;5088568;28;20482;-63
2023/01/07 11:19:48;;;;;;;74.43;50.55;;;333.00;2150.40;;;;;;5087932;28;20028;-62
2023/01/07 11:22:25;;;;;;;21.50;16.38;;;333.10;2150.40;;;;;;5088446;28;20032;-63
2023/01/07 11:24:52;;;;;;;26.10;19.35;;;333.20;2099.20;;;;;;5088192;28;20028;-66
2023/01/07 11:27:19;;;;;;;36.75;24.42;;;333.20;2073.60;;;;;;5088268;28;20021;-63
2023/01/07 11:30:00;;;;;;;22.75;15.00;;;333.30;2099.20;;;;;;5088712;28;20024;-64
2023/01/07 11:32:29;;;;;;;23.67;16.13;;;333.30;2048.00;;;;;;5088540;28;20023;-62
2023/01/07 11:34:59;;;;;;;12.45;8.27;;;333.40;2048.00;;;;;;5088551;28;20024;-61
2023/01/07 11:37:31;;;;;;;29.08;19.45;;;333.40;1996.80;;;;;;5087919;28;20077;-62
2023/01/07 11:39:59;;;;;;;26.25;17.48;;;333.40;2048.00;;;;;;5087910;28;20520;-61
2023/01/07 11:42:37;;;;;;;22.08;14.60;;;333.40;2048.00;;;;;;5088404;28;20474;-63
2023/01/07 11:45:12;;;;;;;31.27;19.23;;;333.50;2048.00;;;;;;5088107;28;20031;-62
2023/01/07 11:47:45;;;;;;;37.00;27.42;;;333.60;2048.00;;;;;;5088412;28;20062;-62
2023/01/07 11:50:34;;;;;;;40.65;30.35;;;333.50;2073.60;;;;;;5087767;28;20028;-62
2023/01/07 11:53:07;;;;;;;47.00;31.90;;;333.60;2073.60;;;;;;5075888;28;20244;-61
2023/01/07 11:55:32;;;;;;;58.83;38.83;;;333.60;2099.20;;;;;;5087989;28;20151;-62
2023/01/07 11:57:58;;;;;;;36.05;27.35;;;333.60;2124.80;;;;;;5088404;28;20028;-62
2023/01/07 12:00:24;;;;;;;46.50;32.05;;;333.70;2124.80;;;;;;5088028;28;20215;-61
2023/01/07 12:03:22;;;;;;;50.90;35.80;;;333.70;2124.80;;;;;;5087697;28;20069;-63
2023/01/07 12:05:55;;;;;;;31.30;23.75;;;333.60;2150.40;;;;;;5006150;28;20164;-63
2023/01/07 12:08:22;;;;;;;33.95;25.27;;;333.70;2150.40;;;;;;5005673;28;20527;-62
2023/01/07 12:10:55;;;;;;;42.50;29.88;;;333.70;2176.00;;;;;;5005789;28;20037;-62
2023/01/07 12:13:24;;;;;;;29.50;22.38;;;333.70;2150.40;;;;;;5008071;28;20038;-63
2023/01/07 12:16:06;;;;;;;24.25;18.05;;;358.40;2150.40;;;;;;5008086;28;20069;-61
2023/01/07 12:18:37;;;;;;;61.42;41.53;;;358.40;2150.40;;;;;;5007512;28;20063;-63
2023/01/07 12:22:05;;;;;;;35.47;28.27;;;358.40;2150.40;;;;;;5008021;28;20036;-64
2023/01/07 12:24:43;;;;;;;36.40;24.90;;;358.50;2150.40;;;;;;4940382;29;20114;-63